Airfield :
LOGIN :

Register | Disclaimer

   EN    FR    IT 

 










Legend :    VFR   Marginal VFR   IFR   Intensive IFR   Very Intensive IFR
Visi :
Ceiling :
>= 8 km
>= 3000ft
5 to 8 km
1000 to 3000 ft
1500m to 5 km
500 to 1000 ft
800 to 1500m
200 to 500 ft
< 800m
< 200 ft
Symbols :   Thunderstorms  Fog  Heavy snow  Heavy precipitations  Wind > 20 kt
SIGMETs :     Misc.  Thunderstorms  Icing  Turbulence  Mountain Waves  Volcanic Ashes







- Airport Elevation : 909 ft
- IATA code : KSF


EDVK - Kassel Calden

CURRENT METAR :
  • 191750Z 20004KT 5000 -RA BKN011 OVC018 04/04 Q1019 RESHRA

EXPIRED METARs :
  • 191720Z 20004KT 4600 -RA BR FEW003 BKN012 OVC020 04/04 Q1019
  • 191650Z 20006KT 8000 -RA FEW003 OVC017 05/03 Q1019
  • 191620Z 20004KT 150V260 9000 OVC021 05/03 Q1019
  • 191550Z 12003KT 060V150 9000 -DZ OVC024 04/03 Q1019

TAF TAF EDVK
Valid from the 19 at 12:00 until the 19 at 21:00 UTC


191100Z 1912/1921 22007KT 9999 SCT025
TEMPO 1913/1919 SHRA BKN014TCU
No reported NOTAMs for that airfield.



MET'MAP, your aeronautical weather chart ! - Copyright ORBIFLY December 2007 - Disclaimer

ORBIFLY MET'MAP TEAM :

Programming & Development : Alexandra Zaïnal
Concept & Development : Baudouin d'Aumeries
Co-Development & Prog : Marc-Olivier Méhu
Technical & hardware support : Manuel Goepfert

Contact : metmap@orbifly.com




SOURCES & CREDITS :

   NOAA